sensor_id;sensor_type;location;lat;lon;timestamp;temperature;humidity
13928;DHT22;7036;50.834;4.718;2023-01-25T00:02:17;17.10;46.30
13928;DHT22;7036;50.834;4.718;2023-01-25T00:04:45;17.10;45.60
13928;DHT22;7036;50.834;4.718;2023-01-25T00:07:13;17.10;45.60
13928;DHT22;7036;50.834;4.718;2023-01-25T00:09:41;17.10;45.60
13928;DHT22;7036;50.834;4.718;2023-01-25T00:12:09;17.10;45.70
13928;DHT22;7036;50.834;4.718;2023-01-25T00:14:37;17.10;45.70
13928;DHT22;7036;50.834;4.718;2023-01-25T00:17:05;17.10;46.40
13928;DHT22;7036;50.834;4.718;2023-01-25T00:19:33;17.10;45.60
13928;DHT22;7036;50.834;4.718;2023-01-25T00:22:02;17.00;45.60
13928;DHT22;7036;50.834;4.718;2023-01-25T00:24:28;17.00;45.50
13928;DHT22;7036;50.834;4.718;2023-01-25T00:26:56;17.00;45.50
13928;DHT22;7036;50.834;4.718;2023-01-25T00:29:24;17.00;45.70
13928;DHT22;7036;50.834;4.718;2023-01-25T00:32:02;17.00;45.70
13928;DHT22;7036;50.834;4.718;2023-01-25T00:34:36;17.00;45.70
13928;DHT22;7036;50.834;4.718;2023-01-25T00:37:01;17.00;45.60
13928;DHT22;7036;50.834;4.718;2023-01-25T00:39:27;17.00;45.60
13928;DHT22;7036;50.834;4.718;2023-01-25T00:41:54;17.00;45.60
13928;DHT22;7036;50.834;4.718;2023-01-25T00:44:22;16.90;45.70
13928;DHT22;7036;50.834;4.718;2023-01-25T00:46:50;16.90;46.50
13928;DHT22;7036;50.834;4.718;2023-01-25T00:49:23;16.90;45.70
13928;DHT22;7036;50.834;4.718;2023-01-25T00:51:49;16.90;45.60
13928;DHT22;7036;50.834;4.718;2023-01-25T00:54:16;16.90;45.60
13928;DHT22;7036;50.834;4.718;2023-01-25T00:56:44;16.90;45.80
13928;DHT22;7036;50.834;4.718;2023-01-25T00:59:12;16.90;45.80
13928;DHT22;7036;50.834;4.718;2023-01-25T01:01:40;16.90;45.80
13928;DHT22;7036;50.834;4.718;2023-01-25T01:04:08;16.80;45.80
13928;DHT22;7036;50.834;4.718;2023-01-25T01:06:38;16.80;45.80
13928;DHT22;7036;50.834;4.718;2023-01-25T01:09:05;16.80;45.60
13928;DHT22;7036;50.834;4.718;2023-01-25T01:11:32;16.80;45.60
13928;DHT22;7036;50.834;4.718;2023-01-25T01:13:59;16.80;45.70
13928;DHT22;7036;50.834;4.718;2023-01-25T01:16:28;16.80;45.70
13928;DHT22;7036;50.834;4.718;2023-01-25T01:18:55;16.90;45.80
13928;DHT22;7036;50.834;4.718;2023-01-25T01:21:23;16.90;45.80
13928;DHT22;7036;50.834;4.718;2023-01-25T01:23:52;16.80;45.80
13928;DHT22;7036;50.834;4.718;2023-01-25T01:26:19;16.80;45.80
13928;DHT22;7036;50.834;4.718;2023-01-25T01:28:47;16.80;45.80
13928;DHT22;7036;50.834;4.718;2023-01-25T01:31:16;16.80;45.70
13928;DHT22;7036;50.834;4.718;2023-01-25T01:33:42;16.80;46.40
13928;DHT22;7036;50.834;4.718;2023-01-25T01:36:14;16.80;45.70
13928;DHT22;7036;50.834;4.718;2023-01-25T01:38:38;16.80;45.60
13928;DHT22;7036;50.834;4.718;2023-01-25T01:41:05;16.80;45.60
13928;DHT22;7036;50.834;4.718;2023-01-25T01:43:33;16.80;45.70
13928;DHT22;7036;50.834;4.718;2023-01-25T01:46:07;16.80;45.70
13928;DHT22;7036;50.834;4.718;2023-01-25T01:48:47;16.80;45.50
13928;DHT22;7036;50.834;4.718;2023-01-25T01:51:20;16.80;45.50
13928;DHT22;7036;50.834;4.718;2023-01-25T01:53:53;16.80;45.50
13928;DHT22;7036;50.834;4.718;2023-01-25T01:56:21;16.80;45.60
13928;DHT22;7036;50.834;4.718;2023-01-25T01:58:46;16.90;45.60
13928;DHT22;7036;50.834;4.718;2023-01-25T02:01:14;16.80;45.20
13928;DHT22;7036;50.834;4.718;2023-01-25T02:03:42;16.90;45.70
13928;DHT22;7036;50.834;4.718;2023-01-25T02:06:15;16.80;46.40
13928;DHT22;7036;50.834;4.718;2023-01-25T02:08:39;16.80;45.50
13928;DHT22;7036;50.834;4.718;2023-01-25T02:11:07;16.80;45.60
13928;DHT22;7036;50.834;4.718;2023-01-25T02:13:36;16.80;45.60
13928;DHT22;7036;50.834;4.718;2023-01-25T02:16:03;16.80;45.50
13928;DHT22;7036;50.834;4.718;2023-01-25T02:18:30;16.80;45.50
13928;DHT22;7036;50.834;4.718;2023-01-25T02:20:58;16.80;45.60
13928;DHT22;7036;50.834;4.718;2023-01-25T02:23:33;16.80;45.50
13928;DHT22;7036;50.834;4.718;2023-01-25T02:26:02;16.80;45.50
13928;DHT22;7036;50.834;4.718;2023-01-25T02:31:12;16.70;45.60
13928;DHT22;7036;50.834;4.718;2023-01-25T02:33:38;16.70;45.50
13928;DHT22;7036;50.834;4.718;2023-01-25T02:38:38;16.70;45.70
13928;DHT22;7036;50.834;4.718;2023-01-25T02:41:12;16.70;45.50
13928;DHT22;7036;50.834;4.718;2023-01-25T02:43:37;16.70;45.60
13928;DHT22;7036;50.834;4.718;2023-01-25T02:46:15;16.70;45.60
13928;DHT22;7036;50.834;4.718;2023-01-25T02:48:41;16.70;45.50
13928;DHT22;7036;50.834;4.718;2023-01-25T02:51:09;16.70;45.60
13928;DHT22;7036;50.834;4.718;2023-01-25T02:53:36;16.70;45.50
13928;DHT22;7036;50.834;4.718;2023-01-25T02:56:04;16.70;45.60
13928;DHT22;7036;50.834;4.718;2023-01-25T02:58:32;16.70;45.60
13928;DHT22;7036;50.834;4.718;2023-01-25T03:01:00;16.70;45.60
13928;DHT22;7036;50.834;4.718;2023-01-25T03:03:28;16.70;45.60
13928;DHT22;7036;50.834;4.718;2023-01-25T03:05:56;16.70;45.60
13928;DHT22;7036;50.834;4.718;2023-01-25T03:08:24;16.70;46.30
13928;DHT22;7036;50.834;4.718;2023-01-25T03:10:55;16.70;45.60
13928;DHT22;7036;50.834;4.718;2023-01-25T03:13:21;16.70;45.40
13928;DHT22;7036;50.834;4.718;2023-01-25T03:15:49;16.70;45.60
13928;DHT22;7036;50.834;4.718;2023-01-25T03:18:17;16.70;45.40
13928;DHT22;7036;50.834;4.718;2023-01-25T03:20:45;16.70;45.60
13928;DHT22;7036;50.834;4.718;2023-01-25T03:23:12;16.60;45.40
13928;DHT22;7036;50.834;4.718;2023-01-25T03:25:40;16.60;45.50
13928;DHT22;7036;50.834;4.718;2023-01-25T03:28:07;16.70;45.40
13928;DHT22;7036;50.834;4.718;2023-01-25T03:30:35;16.70;45.50
13928;DHT22;7036;50.834;4.718;2023-01-25T03:33:02;16.60;45.30
13928;DHT22;7036;50.834;4.718;2023-01-25T03:35:30;16.70;46.30
13928;DHT22;7036;50.834;4.718;2023-01-25T03:37:58;16.60;45.50
13928;DHT22;7036;50.834;4.718;2023-01-25T03:40:26;16.60;45.50
13928;DHT22;7036;50.834;4.718;2023-01-25T03:42:53;16.60;45.40
13928;DHT22;7036;50.834;4.718;2023-01-25T03:45:21;16.60;45.40
13928;DHT22;7036;50.834;4.718;2023-01-25T03:47:49;16.60;45.40
13928;DHT22;7036;50.834;4.718;2023-01-25T03:50:17;16.70;45.50
13928;DHT22;7036;50.834;4.718;2023-01-25T03:52:45;16.60;45.50
13928;DHT22;7036;50.834;4.718;2023-01-25T03:55:13;16.60;45.50
13928;DHT22;7036;50.834;4.718;2023-01-25T03:57:41;16.60;45.50
13928;DHT22;7036;50.834;4.718;2023-01-25T04:00:09;16.60;45.50
13928;DHT22;7036;50.834;4.718;2023-01-25T04:02:36;16.60;45.40
13928;DHT22;7036;50.834;4.718;2023-01-25T04:05:04;16.60;45.50
13928;DHT22;7036;50.834;4.718;2023-01-25T04:07:32;16.60;45.50
13928;DHT22;7036;50.834;4.718;2023-01-25T04:10:00;16.60;45.40
13928;DHT22;7036;50.834;4.718;2023-01-25T04:12:27;16.60;45.40
13928;DHT22;7036;50.834;4.718;2023-01-25T04:14:55;16.60;45.50
13928;DHT22;7036;50.834;4.718;2023-01-25T04:17:24;16.60;45.50
13928;DHT22;7036;50.834;4.718;2023-01-25T04:19:50;16.60;45.40
13928;DHT22;7036;50.834;4.718;2023-01-25T04:22:18;16.50;45.40
13928;DHT22;7036;50.834;4.718;2023-01-25T04:24:46;16.60;45.40
13928;DHT22;7036;50.834;4.718;2023-01-25T04:27:14;16.50;45.30
13928;DHT22;7036;50.834;4.718;2023-01-25T04:29:42;16.60;45.50
13928;DHT22;7036;50.834;4.718;2023-01-25T04:32:10;16.60;45.50
13928;DHT22;7036;50.834;4.718;2023-01-25T04:34:38;16.50;45.40
13928;DHT22;7036;50.834;4.718;2023-01-25T04:37:06;16.60;45.50
13928;DHT22;7036;50.834;4.718;2023-01-25T04:39:34;16.60;45.40
13928;DHT22;7036;50.834;4.718;2023-01-25T04:42:02;16.60;45.40
13928;DHT22;7036;50.834;4.718;2023-01-25T04:44:29;16.50;45.30
13928;DHT22;7036;50.834;4.718;2023-01-25T04:46:56;16.60;45.40
13928;DHT22;7036;50.834;4.718;2023-01-25T04:49:23;16.50;45.30
13928;DHT22;7036;50.834;4.718;2023-01-25T04:51:51;16.50;45.40
13928;DHT22;7036;50.834;4.718;2023-01-25T04:54:18;16.50;45.30
13928;DHT22;7036;50.834;4.718;2023-01-25T04:56:46;16.60;45.40
13928;DHT22;7036;50.834;4.718;2023-01-25T04:59:14;16.50;45.40
13928;DHT22;7036;50.834;4.718;2023-01-25T05:01:42;16.50;45.40
13928;DHT22;7036;50.834;4.718;2023-01-25T05:04:10;16.60;45.40
13928;DHT22;7036;50.834;4.718;2023-01-25T05:06:38;16.50;45.30
13928;DHT22;7036;50.834;4.718;2023-01-25T05:09:06;16.50;45.30
13928;DHT22;7036;50.834;4.718;2023-01-25T05:11:33;16.50;45.20
13928;DHT22;7036;50.834;4.718;2023-01-25T05:14:02;16.50;45.90
13928;DHT22;7036;50.834;4.718;2023-01-25T05:16:29;16.50;45.20
13928;DHT22;7036;50.834;4.718;2023-01-25T05:18:57;16.50;45.20
13928;DHT22;7036;50.834;4.718;2023-01-25T05:21:24;16.60;45.40
13928;DHT22;7036;50.834;4.718;2023-01-25T05:24:09;16.50;45.20
13928;DHT22;7036;50.834;4.718;2023-01-25T05:26:36;16.50;45.20
13928;DHT22;7036;50.834;4.718;2023-01-25T05:29:21;16.60;45.30
13928;DHT22;7036;50.834;4.718;2023-01-25T05:31:48;16.50;45.20
13928;DHT22;7036;50.834;4.718;2023-01-25T05:34:16;16.50;45.30
13928;DHT22;7036;50.834;4.718;2023-01-25T05:36:44;16.50;45.30
13928;DHT22;7036;50.834;4.718;2023-01-25T05:39:12;16.50;45.30
13928;DHT22;7036;50.834;4.718;2023-01-25T05:41:40;16.50;45.30
13928;DHT22;7036;50.834;4.718;2023-01-25T05:44:08;16.60;45.30
13928;DHT22;7036;50.834;4.718;2023-01-25T05:46:36;16.50;45.20
13928;DHT22;7036;50.834;4.718;2023-01-25T05:49:03;16.50;45.20
13928;DHT22;7036;50.834;4.718;2023-01-25T05:51:31;16.50;45.20
13928;DHT22;7036;50.834;4.718;2023-01-25T05:53:58;16.50;45.20
13928;DHT22;7036;50.834;4.718;2023-01-25T05:56:27;16.50;45.20
13928;DHT22;7036;50.834;4.718;2023-01-25T05:58:55;16.50;45.30
13928;DHT22;7036;50.834;4.718;2023-01-25T06:01:23;16.50;45.30
13928;DHT22;7036;50.834;4.718;2023-01-25T06:03:51;16.50;45.20
13928;DHT22;7036;50.834;4.718;2023-01-25T06:06:18;16.50;45.10
13928;DHT22;7036;50.834;4.718;2023-01-25T06:08:46;16.50;45.20
13928;DHT22;7036;50.834;4.718;2023-01-25T06:11:17;16.50;45.10
13928;DHT22;7036;50.834;4.718;2023-01-25T06:13:42;16.50;45.20
13928;DHT22;7036;50.834;4.718;2023-01-25T06:16:09;16.50;45.10
13928;DHT22;7036;50.834;4.718;2023-01-25T06:18:36;16.50;45.20
13928;DHT22;7036;50.834;4.718;2023-01-25T06:21:04;16.50;45.20
13928;DHT22;7036;50.834;4.718;2023-01-25T06:23:32;16.50;45.20
13928;DHT22;7036;50.834;4.718;2023-01-25T06:26:04;16.50;45.20
13928;DHT22;7036;50.834;4.718;2023-01-25T06:28:30;16.50;45.10
13928;DHT22;7036;50.834;4.718;2023-01-25T06:33:33;16.50;45.10
13928;DHT22;7036;50.834;4.718;2023-01-25T06:36:11;16.50;45.20
13928;DHT22;7036;50.834;4.718;2023-01-25T06:38:29;16.50;45.20
13928;DHT22;7036;50.834;4.718;2023-01-25T06:41:00;16.50;45.20
13928;DHT22;7036;50.834;4.718;2023-01-25T06:43:27;16.40;45.10
13928;DHT22;7036;50.834;4.718;2023-01-25T06:45:58;16.50;45.20
13928;DHT22;7036;50.834;4.718;2023-01-25T06:48:25;16.40;45.20
13928;DHT22;7036;50.834;4.718;2023-01-25T06:50:58;16.40;45.10
13928;DHT22;7036;50.834;4.718;2023-01-25T06:53:21;16.50;45.10
13928;DHT22;7036;50.834;4.718;2023-01-25T06:55:55;16.50;45.20
13928;DHT22;7036;50.834;4.718;2023-01-25T06:58:17;16.50;45.30
13928;DHT22;7036;50.834;4.718;2023-01-25T07:00:45;16.50;45.20
13928;DHT22;7036;50.834;4.718;2023-01-25T07:03:13;16.40;45.20
13928;DHT22;7036;50.834;4.718;2023-01-25T07:05:41;16.50;45.20
13928;DHT22;7036;50.834;4.718;2023-01-25T07:08:09;16.40;45.20
13928;DHT22;7036;50.834;4.718;2023-01-25T07:10:37;16.40;45.20
13928;DHT22;7036;50.834;4.718;2023-01-25T07:13:05;16.40;45.20
13928;DHT22;7036;50.834;4.718;2023-01-25T07:15:33;16.40;45.20
13928;DHT22;7036;50.834;4.718;2023-01-25T07:18:01;16.40;45.20
13928;DHT22;7036;50.834;4.718;2023-01-25T07:20:29;16.40;45.20
13928;DHT22;7036;50.834;4.718;2023-01-25T07:22:58;16.40;45.20
13928;DHT22;7036;50.834;4.718;2023-01-25T07:25:24;16.40;45.10
13928;DHT22;7036;50.834;4.718;2023-01-25T07:27:52;16.40;45.20
13928;DHT22;7036;50.834;4.718;2023-01-25T07:30:21;16.40;45.20
13928;DHT22;7036;50.834;4.718;2023-01-25T07:32:48;16.40;45.10
13928;DHT22;7036;50.834;4.718;2023-01-25T07:35:16;16.40;45.20
13928;DHT22;7036;50.834;4.718;2023-01-25T07:37:44;16.40;45.20
13928;DHT22;7036;50.834;4.718;2023-01-25T07:40:13;16.30;45.60
13928;DHT22;7036;50.834;4.718;2023-01-25T07:42:39;16.30;45.50
13928;DHT22;7036;50.834;4.718;2023-01-25T07:45:07;16.40;45.40
13928;DHT22;7036;50.834;4.718;2023-01-25T07:47:34;16.50;45.40
13928;DHT22;7036;50.834;4.718;2023-01-25T07:50:02;16.70;45.30
13928;DHT22;7036;50.834;4.718;2023-01-25T07:52:30;16.70;45.20
13928;DHT22;7036;50.834;4.718;2023-01-25T07:54:58;16.90;45.00
13928;DHT22;7036;50.834;4.718;2023-01-25T07:57:26;17.00;44.90
13928;DHT22;7036;50.834;4.718;2023-01-25T07:59:53;17.10;44.70
13928;DHT22;7036;50.834;4.718;2023-01-25T08:02:21;17.10;44.70
13928;DHT22;7036;50.834;4.718;2023-01-25T08:04:49;17.10;44.60
13928;DHT22;7036;50.834;4.718;2023-01-25T08:07:16;17.20;44.60
13928;DHT22;7036;50.834;4.718;2023-01-25T08:09:44;17.30;44.60
13928;DHT22;7036;50.834;4.718;2023-01-25T08:12:12;17.30;44.50
13928;DHT22;7036;50.834;4.718;2023-01-25T08:14:40;17.40;44.40
13928;DHT22;7036;50.834;4.718;2023-01-25T08:17:09;17.40;44.30
13928;DHT22;7036;50.834;4.718;2023-01-25T08:19:35;17.40;44.20
13928;DHT22;7036;50.834;4.718;2023-01-25T08:22:03;17.40;44.00
13928;DHT22;7036;50.834;4.718;2023-01-25T08:24:30;17.50;44.10
13928;DHT22;7036;50.834;4.718;2023-01-25T08:26:58;17.50;44.30
13928;DHT22;7036;50.834;4.718;2023-01-25T08:29:26;17.50;44.30
13928;DHT22;7036;50.834;4.718;2023-01-25T08:31:54;17.60;44.40
13928;DHT22;7036;50.834;4.718;2023-01-25T08:34:22;17.60;44.40
13928;DHT22;7036;50.834;4.718;2023-01-25T08:36:50;17.60;44.50
13928;DHT22;7036;50.834;4.718;2023-01-25T08:39:18;17.60;44.70
13928;DHT22;7036;50.834;4.718;2023-01-25T08:41:45;17.60;44.60
13928;DHT22;7036;50.834;4.718;2023-01-25T08:44:12;17.60;44.70
13928;DHT22;7036;50.834;4.718;2023-01-25T08:46:42;17.70;44.80
13928;DHT22;7036;50.834;4.718;2023-01-25T08:49:08;17.70;44.70
13928;DHT22;7036;50.834;4.718;2023-01-25T08:51:36;17.70;44.80
13928;DHT22;7036;50.834;4.718;2023-01-25T08:54:04;17.70;44.70
13928;DHT22;7036;50.834;4.718;2023-01-25T08:56:31;17.70;44.60
13928;DHT22;7036;50.834;4.718;2023-01-25T08:58:59;17.70;44.50
13928;DHT22;7036;50.834;4.718;2023-01-25T09:01:28;17.70;44.40
13928;DHT22;7036;50.834;4.718;2023-01-25T09:03:55;17.70;44.30
13928;DHT22;7036;50.834;4.718;2023-01-25T09:06:22;17.80;44.50
13928;DHT22;7036;50.834;4.718;2023-01-25T09:08:49;17.80;44.40
13928;DHT22;7036;50.834;4.718;2023-01-25T09:11:17;17.80;44.50
13928;DHT22;7036;50.834;4.718;2023-01-25T09:13:44;17.80;44.40
13928;DHT22;7036;50.834;4.718;2023-01-25T09:16:12;17.80;44.40
13928;DHT22;7036;50.834;4.718;2023-01-25T09:18:39;17.80;44.60
13928;DHT22;7036;50.834;4.718;2023-01-25T09:21:08;17.80;44.60
13928;DHT22;7036;50.834;4.718;2023-01-25T09:23:33;17.80;44.40
13928;DHT22;7036;50.834;4.718;2023-01-25T09:26:00;17.90;44.50
13928;DHT22;7036;50.834;4.718;2023-01-25T09:28:27;17.90;44.40
13928;DHT22;7036;50.834;4.718;2023-01-25T09:31:04;17.90;44.50
13928;DHT22;7036;50.834;4.718;2023-01-25T09:33:31;17.90;44.60
13928;DHT22;7036;50.834;4.718;2023-01-25T09:35:56;18.00;44.80
13928;DHT22;7036;50.834;4.718;2023-01-25T09:38:23;17.90;44.60
13928;DHT22;7036;50.834;4.718;2023-01-25T09:41:11;18.00;44.60
13928;DHT22;7036;50.834;4.718;2023-01-25T09:46:25;18.00;44.90
13928;DHT22;7036;50.834;4.718;2023-01-25T09:49:02;18.00;45.00
13928;DHT22;7036;50.834;4.718;2023-01-25T09:51:32;18.10;45.00
13928;DHT22;7036;50.834;4.718;2023-01-25T09:53:55;18.10;45.20
13928;DHT22;7036;50.834;4.718;2023-01-25T09:56:28;18.10;45.20
13928;DHT22;7036;50.834;4.718;2023-01-25T09:58:57;18.10;45.10
13928;DHT22;7036;50.834;4.718;2023-01-25T10:01:25;18.10;45.10
13928;DHT22;7036;50.834;4.718;2023-01-25T10:03:59;18.20;45.00
13928;DHT22;7036;50.834;4.718;2023-01-25T10:06:26;18.10;44.90
13928;DHT22;7036;50.834;4.718;2023-01-25T10:09:23;18.20;44.80
13928;DHT22;7036;50.834;4.718;2023-01-25T10:11:47;18.20;45.00
13928;DHT22;7036;50.834;4.718;2023-01-25T10:14:14;18.20;44.60
13928;DHT22;7036;50.834;4.718;2023-01-25T10:22:04;18.20;44.60
13928;DHT22;7036;50.834;4.718;2023-01-25T10:27:36;18.30;44.50
13928;DHT22;7036;50.834;4.718;2023-01-25T10:29:59;18.30;44.50
13928;DHT22;7036;50.834;4.718;2023-01-25T10:32:27;18.30;44.60
13928;DHT22;7036;50.834;4.718;2023-01-25T10:34:56;18.30;44.70
13928;DHT22;7036;50.834;4.718;2023-01-25T10:37:24;18.40;44.70
13928;DHT22;7036;50.834;4.718;2023-01-25T10:42:23;18.40;44.60
13928;DHT22;7036;50.834;4.718;2023-01-25T10:44:50;18.40;44.60
13928;DHT22;7036;50.834;4.718;2023-01-25T10:47:24;18.40;44.50
13928;DHT22;7036;50.834;4.718;2023-01-25T10:49:51;18.40;44.40
13928;DHT22;7036;50.834;4.718;2023-01-25T10:52:23;18.50;44.40
13928;DHT22;7036;50.834;4.718;2023-01-25T10:55:04;18.40;44.20
13928;DHT22;7036;50.834;4.718;2023-01-25T10:57:17;18.40;44.20
13928;DHT22;7036;50.834;4.718;2023-01-25T10:59:47;18.40;44.30
13928;DHT22;7036;50.834;4.718;2023-01-25T11:08:13;18.40;44.10
13928;DHT22;7036;50.834;4.718;2023-01-25T11:10:35;18.50;44.20
13928;DHT22;7036;50.834;4.718;2023-01-25T11:15:44;18.50;44.20
13928;DHT22;7036;50.834;4.718;2023-01-25T11:18:11;18.50;44.20
13928;DHT22;7036;50.834;4.718;2023-01-25T11:20:36;18.50;44.20
13928;DHT22;7036;50.834;4.718;2023-01-25T11:23:08;18.50;44.20
13928;DHT22;7036;50.834;4.718;2023-01-25T11:25:32;18.50;43.60
13928;DHT22;7036;50.834;4.718;2023-01-25T11:28:18;18.50;44.20
13928;DHT22;7036;50.834;4.718;2023-01-25T11:30:45;18.50;44.40
13928;DHT22;7036;50.834;4.718;2023-01-25T11:33:12;18.60;44.30
13928;DHT22;7036;50.834;4.718;2023-01-25T11:36:01;18.50;44.50
13928;DHT22;7036;50.834;4.718;2023-01-25T11:38:25;18.60;44.30
13928;DHT22;7036;50.834;4.718;2023-01-25T11:46:19;18.60;44.20
13928;DHT22;7036;50.834;4.718;2023-01-25T11:51:26;18.60;44.20
13928;DHT22;7036;50.834;4.718;2023-01-25T12:07:50;18.70;45.00
13928;DHT22;7036;50.834;4.718;2023-01-25T12:10:22;18.70;45.00
13928;DHT22;7036;50.834;4.718;2023-01-25T12:23:21;18.70;44.90
13928;DHT22;7036;50.834;4.718;2023-01-25T12:25:55;18.70;44.90
13928;DHT22;7036;50.834;4.718;2023-01-25T12:28:33;18.70;44.80
13928;DHT22;7036;50.834;4.718;2023-01-25T12:31:04;18.70;45.00
13928;DHT22;7036;50.834;4.718;2023-01-25T12:33:33;18.70;44.80
13928;DHT22;7036;50.834;4.718;2023-01-25T12:38:32;18.70;44.60
13928;DHT22;7036;50.834;4.718;2023-01-25T12:41:01;18.70;44.50
13928;DHT22;7036;50.834;4.718;2023-01-25T12:43:34;18.70;44.50
13928;DHT22;7036;50.834;4.718;2023-01-25T12:45:56;18.70;44.40
13928;DHT22;7036;50.834;4.718;2023-01-25T12:48:28;18.80;44.50
13928;DHT22;7036;50.834;4.718;2023-01-25T12:50:56;18.80;44.30
13928;DHT22;7036;50.834;4.718;2023-01-25T12:55:50;18.80;44.20
13928;DHT22;7036;50.834;4.718;2023-01-25T12:58:42;18.80;44.10
13928;DHT22;7036;50.834;4.718;2023-01-25T13:01:10;18.80;44.30
13928;DHT22;7036;50.834;4.718;2023-01-25T13:11:42;18.90;44.10
13928;DHT22;7036;50.834;4.718;2023-01-25T13:16:43;18.90;43.90
13928;DHT22;7036;50.834;4.718;2023-01-25T13:19:53;18.90;44.50
13928;DHT22;7036;50.834;4.718;2023-01-25T13:21:42;18.90;43.80
13928;DHT22;7036;50.834;4.718;2023-01-25T13:24:18;18.90;43.70
13928;DHT22;7036;50.834;4.718;2023-01-25T13:32:02;18.90;43.70
13928;DHT22;7036;50.834;4.718;2023-01-25T13:37:01;18.90;43.50
13928;DHT22;7036;50.834;4.718;2023-01-25T13:44:35;19.00;43.50
13928;DHT22;7036;50.834;4.718;2023-01-25T13:47:06;19.00;43.60
13928;DHT22;7036;50.834;4.718;2023-01-25T13:49:41;19.00;43.40
13928;DHT22;7036;50.834;4.718;2023-01-25T13:52:07;19.00;43.40
13928;DHT22;7036;50.834;4.718;2023-01-25T13:54:41;19.10;43.60
13928;DHT22;7036;50.834;4.718;2023-01-25T13:57:06;19.10;43.80
13928;DHT22;7036;50.834;4.718;2023-01-25T13:59:30;19.10;43.70
13928;DHT22;7036;50.834;4.718;2023-01-25T14:01:57;19.10;43.70
13928;DHT22;7036;50.834;4.718;2023-01-25T14:04:24;19.10;43.90
13928;DHT22;7036;50.834;4.718;2023-01-25T14:06:54;19.10;44.00
13928;DHT22;7036;50.834;4.718;2023-01-25T14:09:19;19.10;44.20
13928;DHT22;7036;50.834;4.718;2023-01-25T14:12:00;19.10;44.00
13928;DHT22;7036;50.834;4.718;2023-01-25T14:17:04;19.10;44.00
13928;DHT22;7036;50.834;4.718;2023-01-25T14:19:27;19.10;44.00
13928;DHT22;7036;50.834;4.718;2023-01-25T14:22:30;19.10;44.00
13928;DHT22;7036;50.834;4.718;2023-01-25T14:24:35;19.10;44.00
13928;DHT22;7036;50.834;4.718;2023-01-25T14:27:03;19.20;44.20
13928;DHT22;7036;50.834;4.718;2023-01-25T14:29:31;19.20;44.10
13928;DHT22;7036;50.834;4.718;2023-01-25T14:31:57;19.20;44.10
13928;DHT22;7036;50.834;4.718;2023-01-25T14:34:25;19.20;44.10
13928;DHT22;7036;50.834;4.718;2023-01-25T14:37:04;19.20;44.00
13928;DHT22;7036;50.834;4.718;2023-01-25T14:39:31;19.10;44.20
13928;DHT22;7036;50.834;4.718;2023-01-25T14:41:58;19.10;44.20
13928;DHT22;7036;50.834;4.718;2023-01-25T14:44:25;19.20;44.20
13928;DHT22;7036;50.834;4.718;2023-01-25T14:47:21;19.20;44.20
13928;DHT22;7036;50.834;4.718;2023-01-25T14:49:47;19.20;44.20
13928;DHT22;7036;50.834;4.718;2023-01-25T14:52:15;19.20;44.30
13928;DHT22;7036;50.834;4.718;2023-01-25T14:57:36;19.20;44.10
13928;DHT22;7036;50.834;4.718;2023-01-25T15:00:03;19.20;44.20
13928;DHT22;7036;50.834;4.718;2023-01-25T15:02:50;19.20;45.00
13928;DHT22;7036;50.834;4.718;2023-01-25T15:05:25;19.20;44.10
13928;DHT22;7036;50.834;4.718;2023-01-25T15:10:27;19.20;43.90
13928;DHT22;7036;50.834;4.718;2023-01-25T15:15:56;19.20;44.20
13928;DHT22;7036;50.834;4.718;2023-01-25T15:18:47;19.20;44.20
13928;DHT22;7036;50.834;4.718;2023-01-25T15:21:11;19.30;44.40
13928;DHT22;7036;50.834;4.718;2023-01-25T15:23:39;19.30;44.60
13928;DHT22;7036;50.834;4.718;2023-01-25T15:26:11;19.30;44.40
13928;DHT22;7036;50.834;4.718;2023-01-25T15:28:33;19.20;44.10
13928;DHT22;7036;50.834;4.718;2023-01-25T15:31:02;19.20;43.90
13928;DHT22;7036;50.834;4.718;2023-01-25T15:33:27;19.20;44.00
13928;DHT22;7036;50.834;4.718;2023-01-25T15:35:54;19.20;43.70
13928;DHT22;7036;50.834;4.718;2023-01-25T15:38:22;19.20;43.60
13928;DHT22;7036;50.834;4.718;2023-01-25T15:40:49;19.20;43.70
13928;DHT22;7036;50.834;4.718;2023-01-25T15:43:17;19.20;43.40
13928;DHT22;7036;50.834;4.718;2023-01-25T15:45:44;19.20;43.50
13928;DHT22;7036;50.834;4.718;2023-01-25T15:48:14;19.30;43.70
13928;DHT22;7036;50.834;4.718;2023-01-25T15:50:41;19.30;43.50
13928;DHT22;7036;50.834;4.718;2023-01-25T15:53:14;19.30;43.30
13928;DHT22;7036;50.834;4.718;2023-01-25T15:55:41;19.20;43.30
13928;DHT22;7036;50.834;4.718;2023-01-25T15:58:08;19.20;43.40
13928;DHT22;7036;50.834;4.718;2023-01-25T16:00:34;19.30;43.40
13928;DHT22;7036;50.834;4.718;2023-01-25T16:03:02;19.30;43.30
13928;DHT22;7036;50.834;4.718;2023-01-25T16:05:29;19.30;43.20
13928;DHT22;7036;50.834;4.718;2023-01-25T16:07:56;19.30;43.10
13928;DHT22;7036;50.834;4.718;2023-01-25T16:10:24;19.30;43.00
13928;DHT22;7036;50.834;4.718;2023-01-25T16:12:51;19.30;43.70
13928;DHT22;7036;50.834;4.718;2023-01-25T16:15:18;19.30;43.00
13928;DHT22;7036;50.834;4.718;2023-01-25T16:17:45;19.30;43.00
13928;DHT22;7036;50.834;4.718;2023-01-25T16:20:17;19.30;43.00
13928;DHT22;7036;50.834;4.718;2023-01-25T16:22:42;19.30;43.00
13928;DHT22;7036;50.834;4.718;2023-01-25T16:25:09;19.40;43.00
13928;DHT22;7036;50.834;4.718;2023-01-25T16:27:37;19.40;43.00
13928;DHT22;7036;50.834;4.718;2023-01-25T16:30:04;19.40;42.90
13928;DHT22;7036;50.834;4.718;2023-01-25T16:32:31;19.40;42.90
13928;DHT22;7036;50.834;4.718;2023-01-25T16:34:58;19.40;43.00
13928;DHT22;7036;50.834;4.718;2023-01-25T16:37:25;19.40;43.00
13928;DHT22;7036;50.834;4.718;2023-01-25T16:39:53;19.40;43.00
13928;DHT22;7036;50.834;4.718;2023-01-25T16:42:20;19.40;42.90
13928;DHT22;7036;50.834;4.718;2023-01-25T16:44:47;19.40;42.80
13928;DHT22;7036;50.834;4.718;2023-01-25T16:47:14;19.40;42.80
13928;DHT22;7036;50.834;4.718;2023-01-25T16:49:44;19.40;43.00
13928;DHT22;7036;50.834;4.718;2023-01-25T16:52:12;19.40;43.60
13928;DHT22;7036;50.834;4.718;2023-01-25T16:54:39;19.40;43.00
13928;DHT22;7036;50.834;4.718;2023-01-25T16:57:06;19.40;43.20
13928;DHT22;7036;50.834;4.718;2023-01-25T16:59:33;19.50;43.30
13928;DHT22;7036;50.834;4.718;2023-01-25T17:02:00;19.50;43.30
13928;DHT22;7036;50.834;4.718;2023-01-25T17:04:28;19.50;43.30
13928;DHT22;7036;50.834;4.718;2023-01-25T17:06:55;19.50;43.30
13928;DHT22;7036;50.834;4.718;2023-01-25T17:09:23;19.50;43.20
13928;DHT22;7036;50.834;4.718;2023-01-25T17:11:50;19.40;43.00
13928;DHT22;7036;50.834;4.718;2023-01-25T17:14:18;19.40;43.00
13928;DHT22;7036;50.834;4.718;2023-01-25T17:16:46;19.40;42.90
13928;DHT22;7036;50.834;4.718;2023-01-25T17:19:13;19.50;42.90
13928;DHT22;7036;50.834;4.718;2023-01-25T17:21:40;19.50;43.00
13928;DHT22;7036;50.834;4.718;2023-01-25T17:24:10;19.50;43.00
13928;DHT22;7036;50.834;4.718;2023-01-25T17:26:35;19.50;43.10
13928;DHT22;7036;50.834;4.718;2023-01-25T17:29:02;19.60;43.10
13928;DHT22;7036;50.834;4.718;2023-01-25T17:31:30;19.60;43.20
13928;DHT22;7036;50.834;4.718;2023-01-25T17:34:02;19.60;43.40
13928;DHT22;7036;50.834;4.718;2023-01-25T17:36:25;19.60;43.50